Overview Statistics Trail Chart Weather Telemetry Raw packets
 

This is the latest recevied weather packets stored in our database for station/object KLEMETTI. If no packets are shown the sender has not sent any weather packets the latest 10 day(s).

<< 1 2 3 4 5 >>
Time Temp. Humidity Pressure Rain* Wind** Luminosity Snow
1788623095 12.22° C 71% 1000.8 hPa 0 mm - - -
1788621896 12.22° C 75% 1000.8 hPa 0 mm - - -
1788620485 11.67° C 78% 1000.5 hPa 0.25 mm - - -
1788619495 11.67° C 80% 1000.5 hPa 0.25 mm - - -
1788616886 11.67° C 91% 999.9 hPa 0 mm - - -
1788613288 13.33° C 83% 999.4 hPa 0.25 mm - - -
1788612295 12.22° C 83% 999.2 hPa 0.25 mm - - -
1788611094 12.22° C 85% 999.1 hPa 0.25 mm - - -
1788609895 13.33° C 82% 998.8 hPa 0.25 mm - - -
1788608695 12.22° C 92% 998.7 hPa 0.25 mm - - -
1788607496 12.22° C 85% 998.6 hPa 0.25 mm - - -
1788606294 12.22° C 87% 998.1 hPa 0.25 mm - - -
1788605096 12.22° C 86% 998 hPa 0.25 mm - - -
1788603895 12.78° C 88% 997.7 hPa 0.25 mm - - -
1788602695 11.67° C 95% 997.5 hPa 0.25 mm - - -
1788601494 11.67° C 94% 997.3 hPa 0 mm - - -
1788600295 13.33° C 83% 996.9 hPa 0 mm - - -
1788597895 12.78° C 87% 996.7 hPa 0.25 mm - - -
1788595493 13.33° C 82% 996.4 hPa 0.25 mm - - -
1788594293 12.22° C 89% 996.2 hPa 0 mm - - -
1788593092 13.33° C 86% 995.9 hPa 0 mm - - -
1788590691 12.78° C 89% 995.7 hPa 0.25 mm - - -
1788588294 12.78° C 92% 995.3 hPa 0.25 mm - - -
1788587092 12.22° C 94% 995.2 hPa 0.51 mm - - -
1788585892 11.67° C 97% 995.2 hPa 0.51 mm - - -

* Rain latest hour (hover to see other rain measurements)
** Current wind speed in m/s (hover to see current wind gust speed)